createdAt,value
2018-06-13T00:01:16.612Z,15.30
2018-06-13T00:04:21.053Z,15.20
2018-06-13T00:07:25.431Z,15.10
2018-06-13T00:10:30.060Z,15.00
2018-06-13T00:13:34.794Z,15.00
2018-06-13T00:16:39.555Z,15.00
2018-06-13T00:19:44.401Z,15.00
2018-06-13T00:22:48.816Z,15.00
2018-06-13T00:25:53.316Z,15.00
2018-06-13T00:28:58.840Z,15.00
2018-06-13T00:32:03.652Z,15.10
2018-06-13T00:35:08.280Z,15.20
2018-06-13T00:38:14.843Z,15.20
2018-06-13T00:41:19.335Z,15.10
2018-06-13T00:44:24.188Z,15.00
2018-06-13T00:47:28.851Z,15.00
2018-06-13T00:50:35.757Z,14.90
2018-06-13T00:53:42.412Z,14.90
2018-06-13T00:56:47.943Z,14.80
2018-06-13T00:59:53.551Z,14.70
2018-06-13T01:03:04.017Z,14.60
2018-06-13T01:06:08.546Z,14.60
2018-06-13T01:09:15.463Z,14.60
2018-06-13T01:12:23.219Z,14.50
2018-06-13T01:15:34.642Z,14.50
2018-06-13T01:21:49.048Z,14.30
2018-06-13T01:25:04.175Z,14.30
2018-06-13T01:28:10.229Z,14.30
2018-06-13T01:31:15.919Z,14.30
2018-06-13T01:34:20.819Z,14.30
2018-06-13T01:41:10.889Z,14.60
2018-06-13T01:44:25.732Z,14.40
2018-06-13T01:51:00.412Z,14.40
2018-06-13T01:54:07.662Z,14.30
2018-06-13T01:57:18.786Z,14.50
2018-06-13T02:00:31.022Z,14.30
2018-06-13T02:03:42.300Z,14.30
2018-06-13T02:06:48.298Z,14.30
2018-06-13T02:09:54.115Z,14.20
2018-06-13T02:13:05.855Z,14.20
2018-06-13T02:16:11.674Z,14.20
2018-06-13T02:19:16.924Z,14.00
2018-06-13T02:22:22.409Z,13.90
2018-06-13T02:25:27.945Z,13.80
2018-06-13T02:28:34.386Z,13.80
2018-06-13T02:31:40.297Z,13.70
2018-06-13T02:34:48.366Z,13.60
2018-06-13T02:38:19.450Z,13.50
2018-06-13T02:41:37.089Z,13.50
2018-06-13T02:44:42.014Z,13.40
2018-06-13T02:47:50.820Z,13.30
2018-06-13T02:51:01.155Z,13.40
2018-06-13T02:54:17.817Z,13.40
2018-06-13T02:57:23.647Z,13.40
2018-06-13T03:00:31.292Z,13.40
2018-06-13T03:10:20.378Z,13.40
2018-06-13T03:13:40.260Z,13.50
2018-06-13T03:16:52.436Z,14.10
2018-06-13T03:20:00.819Z,14.10
2018-06-13T03:23:12.867Z,13.80
2018-06-13T03:26:23.583Z,13.60
2018-06-13T03:29:38.333Z,13.50
2018-06-13T03:32:43.914Z,13.80
2018-06-13T03:35:48.536Z,14.10
2018-06-13T03:38:53.247Z,14.00
2018-06-13T03:41:58.071Z,13.90
2018-06-13T03:45:02.826Z,13.80
2018-06-13T03:48:08.519Z,13.60
2018-06-13T03:51:26.333Z,13.60
2018-06-13T03:54:33.363Z,13.60
2018-06-13T03:57:38.748Z,13.60
2018-06-13T04:00:44.943Z,13.50
2018-06-13T04:03:51.034Z,13.50
2018-06-13T04:07:08.419Z,13.40
2018-06-13T04:10:18.122Z,13.50
2018-06-13T04:13:28.249Z,13.50
2018-06-13T04:16:44.929Z,13.50
2018-06-13T04:19:51.441Z,13.50
2018-06-13T04:30:55.807Z,13.60
2018-06-13T04:34:14.804Z,13.70
2018-06-13T04:37:20.749Z,13.80
2018-06-13T04:40:29.715Z,13.90
2018-06-13T04:43:35.327Z,13.90
2018-06-13T04:46:40.791Z,13.90
2018-06-13T04:49:50.069Z,13.90
2018-06-13T04:52:58.512Z,14.00
2018-06-13T04:56:08.194Z,14.00
2018-06-13T05:02:56.156Z,14.10
2018-06-13T05:10:52.659Z,14.20
2018-06-13T05:14:04.038Z,14.30
2018-06-13T05:17:19.033Z,14.20
2018-06-13T05:20:48.502Z,14.40
2018-06-13T05:23:57.241Z,14.60
2018-06-13T05:27:15.441Z,14.50
2018-06-13T05:37:28.643Z,14.40
2018-06-13T05:41:27.103Z,14.50
2018-06-13T05:45:01.817Z,14.40
2018-06-13T05:48:35.565Z,14.40
2018-06-13T05:52:02.011Z,14.50
2018-06-13T05:55:52.138Z,14.40
2018-06-13T05:58:59.601Z,14.30
2018-06-13T06:11:37.333Z,14.10
2018-06-13T06:18:28.666Z,14.30
2018-06-13T06:22:14.211Z,14.20
2018-06-13T06:30:08.549Z,14.30
2018-06-13T06:33:40.894Z,14.20
2018-06-13T06:37:27.087Z,14.20
2018-06-13T06:40:49.130Z,14.30
2018-06-13T06:51:18.652Z,14.20
2018-06-13T06:54:54.687Z,14.30
2018-06-13T06:58:09.654Z,14.20
2018-06-13T07:01:26.532Z,14.10
2018-06-13T07:05:02.192Z,13.90
2018-06-13T07:08:39.249Z,13.90
2018-06-13T07:12:16.983Z,13.80
2018-06-13T07:15:30.740Z,13.70
2018-06-13T07:22:13.961Z,13.70
2018-06-13T07:25:21.733Z,13.70
2018-06-13T07:28:47.633Z,13.60
2018-06-13T07:32:06.776Z,13.60
2018-06-13T07:35:23.338Z,13.50
2018-06-13T07:38:33.491Z,13.30
2018-06-13T07:41:43.494Z,13.40
2018-06-13T07:45:15.815Z,13.40
2018-06-13T07:52:22.943Z,13.80
2018-06-13T07:55:53.550Z,14.00
2018-06-13T08:03:04.098Z,14.40
2018-06-13T08:09:47.127Z,14.80
2018-06-13T08:13:02.869Z,15.10
2018-06-13T08:16:22.191Z,15.30
2018-06-13T08:20:00.827Z,15.80
2018-06-13T08:23:34.723Z,16.40
2018-06-13T08:26:41.703Z,16.60
2018-06-13T08:42:16.844Z,16.40
2018-06-13T08:45:38.647Z,15.90
2018-06-13T09:02:49.645Z,14.70
2018-06-13T09:09:27.891Z,14.90
2018-06-13T09:12:45.404Z,15.10
2018-06-13T09:19:57.708Z,15.60
2018-06-13T09:23:27.690Z,15.80
2018-06-13T09:26:46.092Z,15.80
2018-06-13T09:30:03.757Z,15.80
2018-06-13T09:40:11.056Z,15.40
2018-06-13T09:43:20.596Z,15.10
2018-06-13T09:46:30.506Z,14.70
2018-06-13T09:49:40.389Z,14.80
2018-06-13T09:53:01.108Z,15.00
2018-06-13T09:56:14.360Z,14.80
2018-06-13T09:59:23.950Z,15.10
2018-06-13T10:02:50.253Z,14.90
2018-06-13T10:05:57.798Z,14.90
2018-06-13T10:09:26.709Z,15.00
2018-06-13T10:12:47.510Z,15.50
2018-06-13T10:16:08.482Z,15.90
2018-06-13T10:19:28.951Z,16.40
2018-06-13T10:26:42.674Z,17.00
2018-06-13T10:35:48.448Z,16.90
2018-06-13T10:39:02.396Z,16.90
2018-06-13T10:42:08.183Z,17.00
2018-06-13T10:45:13.383Z,16.60
2018-06-13T10:48:26.109Z,16.50
2018-06-13T10:51:30.897Z,16.50
2018-06-13T10:54:35.712Z,16.40
2018-06-13T10:57:40.437Z,16.40
2018-06-13T11:04:55.733Z,16.30
2018-06-13T11:08:00.627Z,16.40
2018-06-13T11:11:06.154Z,16.30
2018-06-13T11:14:11.003Z,16.20
2018-06-13T11:20:29.789Z,16.10
2018-06-13T11:23:34.542Z,15.90
2018-06-13T11:26:39.355Z,15.90
2018-06-13T11:29:44.512Z,15.90
2018-06-13T11:33:01.986Z,16.00
2018-06-13T11:36:06.912Z,16.10
2018-06-13T11:39:12.054Z,16.10
2018-06-13T11:42:20.802Z,16.50
2018-06-13T11:45:26.363Z,16.80
2018-06-13T11:48:32.106Z,16.70
2018-06-13T11:51:37.739Z,16.90
2018-06-13T11:54:42.403Z,17.20
2018-06-13T11:57:57.356Z,17.60
2018-06-13T12:01:02.248Z,17.70
2018-06-13T12:04:11.576Z,17.90
2018-06-13T12:07:24.890Z,18.00
2018-06-13T12:10:30.895Z,18.00
2018-06-13T12:13:35.754Z,17.70
2018-06-13T12:16:40.752Z,18.00
2018-06-13T12:23:03.497Z,17.80
2018-06-13T12:26:08.432Z,17.70
2018-06-13T12:29:13.194Z,17.70
2018-06-13T12:32:29.296Z,17.70
2018-06-13T12:35:34.117Z,17.70
2018-06-13T12:38:39.126Z,17.40
2018-06-13T12:41:43.991Z,17.30
2018-06-13T12:44:54.480Z,17.40
2018-06-13T12:47:59.453Z,17.80
2018-06-13T12:51:05.554Z,18.10
2018-06-13T12:54:11.038Z,18.40
2018-06-13T12:57:21.128Z,18.50
2018-06-13T13:00:27.459Z,18.00
2018-06-13T13:03:32.352Z,17.60
2018-06-13T13:06:37.318Z,17.60
2018-06-13T13:09:42.772Z,17.60
2018-06-13T13:12:56.937Z,17.10
2018-06-13T13:16:01.720Z,16.90
2018-06-13T13:19:06.612Z,16.90
2018-06-13T13:22:11.396Z,16.90
2018-06-13T13:25:28.641Z,16.90
2018-06-13T13:28:33.590Z,17.30
2018-06-13T13:31:38.345Z,17.60
2018-06-13T13:34:43.169Z,17.80
2018-06-13T13:38:06.564Z,18.30
2018-06-13T13:41:19.229Z,18.40
2018-06-13T13:44:25.018Z,18.60
2018-06-13T13:47:30.017Z,19.00
2018-06-13T13:50:34.769Z,19.40
2018-06-13T13:53:39.503Z,18.60
2018-06-13T13:56:44.305Z,18.90
2018-06-13T13:59:56.720Z,19.10
2018-06-13T14:03:01.459Z,18.80
2018-06-13T14:06:06.408Z,18.50
2018-06-13T14:09:12.176Z,18.40
2018-06-13T14:12:20.821Z,17.90
2018-06-13T14:15:26.854Z,17.60
2018-06-13T14:18:31.560Z,17.60
2018-06-13T14:21:36.209Z,17.80
2018-06-13T14:24:40.949Z,17.70
2018-06-13T14:27:45.571Z,17.70
2018-06-13T14:30:51.865Z,17.90
2018-06-13T14:34:02.756Z,17.90
2018-06-13T14:37:07.990Z,18.10
2018-06-13T14:40:12.800Z,18.30
2018-06-13T14:43:18.590Z,18.40
2018-06-13T14:46:24.416Z,18.70
2018-06-13T14:49:29.080Z,18.50
2018-06-13T14:52:33.742Z,18.40
2018-06-13T14:55:45.601Z,18.40
2018-06-13T14:58:52.088Z,18.40
2018-06-13T15:01:57.517Z,18.20
2018-06-13T15:05:02.153Z,18.00
2018-06-13T15:08:06.809Z,17.50
2018-06-13T15:11:11.406Z,17.30
2018-06-13T15:14:20.659Z,17.20
2018-06-13T15:17:30.110Z,16.80
2018-06-13T15:20:34.965Z,16.30
2018-06-13T15:23:39.658Z,16.00
2018-06-13T15:26:44.470Z,15.70
2018-06-13T15:33:03.134Z,15.70
2018-06-13T15:36:07.951Z,15.80
2018-06-13T15:39:14.596Z,15.80
2018-06-13T15:42:25.473Z,15.80
2018-06-13T15:45:30.285Z,15.80
2018-06-13T15:48:35.118Z,15.80
2018-06-13T15:51:39.914Z,16.00
2018-06-13T15:54:44.696Z,16.00
2018-06-13T15:57:58.453Z,16.10
2018-06-13T16:01:08.800Z,16.20
2018-06-13T16:04:13.656Z,16.30
2018-06-13T16:07:26.864Z,16.20
2018-06-13T16:10:31.720Z,16.20
2018-06-13T16:13:36.404Z,16.00
2018-06-13T16:16:41.574Z,16.10
2018-06-13T16:19:48.143Z,16.10
2018-06-13T16:23:06.519Z,16.30
2018-06-13T16:26:11.184Z,16.50
2018-06-13T16:29:18.786Z,16.40
2018-06-13T16:35:33.734Z,16.50
2018-06-13T16:38:38.605Z,16.60
2018-06-13T16:41:43.612Z,16.60
2018-06-13T16:44:51.961Z,16.70
2018-06-13T16:47:56.728Z,16.60
2018-06-13T16:51:12.412Z,16.60
2018-06-13T16:54:26.922Z,16.70
2018-06-13T16:57:31.697Z,16.70
2018-06-13T17:00:36.565Z,16.80
2018-06-13T17:03:41.431Z,16.90
2018-06-13T17:06:48.126Z,16.80
2018-06-13T17:10:00.138Z,16.70
2018-06-13T17:13:04.949Z,16.60
2018-06-13T17:16:09.905Z,16.50
2018-06-13T17:19:19.479Z,16.40
2018-06-13T17:22:30.932Z,16.40
2018-06-13T17:25:35.669Z,16.40
2018-06-13T17:28:40.401Z,16.30
2018-06-13T17:31:47.086Z,16.10
2018-06-13T17:35:04.846Z,16.20
2018-06-13T17:38:17.945Z,16.20
2018-06-13T17:41:24.270Z,16.00
2018-06-13T17:44:28.864Z,15.90
2018-06-13T17:47:33.496Z,16.00
2018-06-13T17:50:38.163Z,15.90
2018-06-13T17:53:54.668Z,15.90
2018-06-13T17:56:59.366Z,15.60
2018-06-13T18:00:04.253Z,15.70
2018-06-13T18:03:09.292Z,15.70
2018-06-13T18:06:14.079Z,15.70
2018-06-13T18:09:26.869Z,15.60
2018-06-13T18:12:31.580Z,15.60
2018-06-13T18:15:36.317Z,15.60
2018-06-13T18:18:54.977Z,15.50
2018-06-13T18:22:01.249Z,15.50
2018-06-13T18:25:05.953Z,15.40
2018-06-13T18:28:10.676Z,15.40
2018-06-13T18:31:15.567Z,15.40
2018-06-13T18:34:35.215Z,15.10
2018-06-13T18:37:40.089Z,15.10
2018-06-13T18:40:44.815Z,15.20
2018-06-13T18:43:49.824Z,15.10
2018-06-13T18:46:57.557Z,15.00
2018-06-13T18:50:02.569Z,15.00
2018-06-13T18:53:07.794Z,14.90
2018-06-13T18:56:12.647Z,14.90
2018-06-13T18:59:21.718Z,14.90
2018-06-13T19:02:28.787Z,14.90
2018-06-13T19:05:33.667Z,15.00
2018-06-13T19:08:38.406Z,15.00
2018-06-13T19:11:43.188Z,14.90
2018-06-13T19:14:47.929Z,14.90
2018-06-13T19:17:56.792Z,14.80
2018-06-13T19:21:02.660Z,14.80
2018-06-13T19:24:07.360Z,14.80
2018-06-13T19:27:12.854Z,14.90
2018-06-13T19:33:37.260Z,14.90
2018-06-13T19:36:42.247Z,14.80
2018-06-13T19:39:48.913Z,14.90
2018-06-13T19:43:03.576Z,14.90
2018-06-13T19:46:12.295Z,14.90
2018-06-13T19:49:20.704Z,14.90
2018-06-13T19:52:32.608Z,14.80
2018-06-13T19:55:42.318Z,14.90
2018-06-13T19:58:56.691Z,15.20
2018-06-13T20:02:01.408Z,15.30
2018-06-13T20:05:11.235Z,15.10
2018-06-13T20:08:17.525Z,15.10
2018-06-13T20:11:28.202Z,15.00
2018-06-13T20:14:38.125Z,14.80
2018-06-13T20:17:50.254Z,14.90
2018-06-13T20:21:04.096Z,14.70
2018-06-13T20:24:08.705Z,14.60
2018-06-13T20:27:23.287Z,14.60
2018-06-13T20:30:42.971Z,14.60
2018-06-13T20:33:51.499Z,14.50
2018-06-13T20:37:01.010Z,14.40
2018-06-13T20:40:05.822Z,14.40
2018-06-13T20:43:10.670Z,14.70
2018-06-13T20:46:15.422Z,14.70
2018-06-13T20:49:22.388Z,14.90
2018-06-13T20:52:28.051Z,14.90
2018-06-13T20:55:32.737Z,14.70
2018-06-13T20:58:37.322Z,14.50
2018-06-13T21:01:42.121Z,14.40
2018-06-13T21:04:48.654Z,14.30
2018-06-13T21:07:58.132Z,14.30
2018-06-13T21:11:02.939Z,14.30
2018-06-13T21:14:07.509Z,14.20
2018-06-13T21:17:15.015Z,14.20
2018-06-13T21:20:20.068Z,14.10
2018-06-13T21:23:27.930Z,14.50
2018-06-13T21:26:32.806Z,14.30
2018-06-13T21:29:37.389Z,14.60
2018-06-13T21:32:42.145Z,14.60
2018-06-13T21:35:49.200Z,14.60
2018-06-13T21:38:53.970Z,14.40
2018-06-13T21:41:58.536Z,14.30
2018-06-13T21:45:03.273Z,14.50
2018-06-13T21:48:07.947Z,14.50
2018-06-13T21:51:12.647Z,14.50
2018-06-13T21:54:18.705Z,14.60
2018-06-13T21:57:27.440Z,14.50
2018-06-13T22:00:32.125Z,14.50
2018-06-13T22:03:36.804Z,14.30
2018-06-13T22:06:41.405Z,14.30
2018-06-13T22:09:50.018Z,14.30
2018-06-13T22:12:59.873Z,14.20
2018-06-13T22:16:04.527Z,14.30
2018-06-13T22:19:09.175Z,14.30
2018-06-13T22:22:13.812Z,14.40
2018-06-13T22:25:22.581Z,14.30
2018-06-13T22:28:31.239Z,14.10
2018-06-13T22:31:35.944Z,14.10
2018-06-13T22:34:40.642Z,14.10
2018-06-13T22:37:45.578Z,14.10
2018-06-13T22:40:53.688Z,14.10
2018-06-13T22:47:02.949Z,14.10
2018-06-13T22:50:10.855Z,14.10
2018-06-13T22:53:17.279Z,14.10
2018-06-13T22:56:26.803Z,14.00
2018-06-13T22:59:31.455Z,14.00
2018-06-13T23:02:36.217Z,13.90
2018-06-13T23:05:40.822Z,13.90
2018-06-13T23:08:52.607Z,13.90
2018-06-13T23:12:00.656Z,13.90
2018-06-13T23:15:10.436Z,14.00
2018-06-13T23:18:17.629Z,14.10
2018-06-13T23:21:29.343Z,14.20
2018-06-13T23:24:43.905Z,14.10
2018-06-13T23:27:56.580Z,14.00
2018-06-13T23:31:04.427Z,13.80
2018-06-13T23:34:09.084Z,13.70
2018-06-13T23:37:18.081Z,13.80
2018-06-13T23:40:27.277Z,13.90
2018-06-13T23:43:34.896Z,13.90
2018-06-13T23:46:39.895Z,13.90
2018-06-13T23:50:07.581Z,13.80
2018-06-13T23:53:12.897Z,13.90
2018-06-13T23:56:27.393Z,14.00
2018-06-13T23:59:32.708Z,13.90
